AAY4567 KMYR-KJQF
Flight info
| Callsign | AAY4567 |
|---|---|
| Flight time | 0h 29m |
| Altitude | 20000 |
| Route | FLO KABEE3 |
| Aircraft | A320/M-SDE3FGHIRWY/LB1 |
Departure
| Time | 2026-05-05 17:19 |
|---|---|
| Airport | Myrtle Beach International Airport (KMYR) |
Arrival
| Time | 2026-05-05 17:48 |
|---|---|
| Airport | Concord-Padgett Regional Airport (KJQF) |
| Time | Latitude | Longitude | Altitude | Speed | Heading |
|---|---|---|---|---|---|
| 2026-05-05 17:07 | 33.68167 | -78.92377 | 32 ft | 0 kts | 78° |
| 2026-05-05 17:12 | 33.68164 | -78.92395 | 32 ft | 4 kts | 78° |
| 2026-05-05 17:13 | 33.68159 | -78.92426 | 31 ft | 4 kts | 78° |
| 2026-05-05 17:13 | 33.68154 | -78.92458 | 31 ft | 4 kts | 78° |
| 2026-05-05 17:13 | 33.68147 | -78.92489 | 32 ft | 4 kts | 58° |
| 2026-05-05 17:13 | 33.68136 | -78.92504 | 32 ft | 0 kts | 28° |
| 2026-05-05 17:15 | 33.68167 | -78.92508 | 32 ft | 8 kts | 352° |
| 2026-05-05 17:15 | 33.68235 | -78.92533 | 32 ft | 10 kts | 340° |
| 2026-05-05 17:15 | 33.68349 | -78.92575 | 32 ft | 23 kts | 348° |
| 2026-05-05 17:16 | 33.68517 | -78.92618 | 32 ft | 26 kts | 348° |
| 2026-05-05 17:16 | 33.68608 | -78.92639 | 32 ft | 13 kts | 348° |
| 2026-05-05 17:16 | 33.68661 | -78.92694 | 31 ft | 10 kts | 271° |
| 2026-05-05 17:16 | 33.68667 | -78.92794 | 31 ft | 12 kts | 323° |
| 2026-05-05 17:17 | 33.68793 | -78.92830 | 32 ft | 23 kts | 349° |
| 2026-05-05 17:17 | 33.68960 | -78.92853 | 32 ft | 25 kts | 17° |
| 2026-05-05 17:17 | 33.69135 | -78.92873 | 32 ft | 27 kts | 348° |
| 2026-05-05 17:17 | 33.69263 | -78.92914 | 30 ft | 9 kts | 311° |
| 2026-05-05 17:18 | 33.69260 | -78.93013 | 32 ft | 18 kts | 257° |
| 2026-05-05 17:18 | 33.69219 | -78.93127 | 33 ft | 15 kts | 209° |
| 2026-05-05 17:18 | 33.68962 | -78.93079 | 35 ft | 74 kts | 169° |
| 2026-05-05 17:18 | 33.68222 | -78.92893 | 31 ft | 140 kts | 168° |
| 2026-05-05 17:19 | 33.67144 | -78.92630 | 402 ft | 162 kts | 169° |
| 2026-05-05 17:19 | 33.66063 | -78.92380 | 1419 ft | 157 kts | 169° |
| 2026-05-05 17:19 | 33.64955 | -78.92197 | 2189 ft | 170 kts | 182° |
| 2026-05-05 17:19 | 33.63803 | -78.92773 | 2551 ft | 199 kts | 225° |
| 2026-05-05 17:20 | 33.63240 | -78.94382 | 2986 ft | 230 kts | 267° |
| 2026-05-05 17:20 | 33.63752 | -78.96314 | 3658 ft | 261 kts | 302° |
| 2026-05-05 17:20 | 33.64991 | -78.97994 | 4552 ft | 275 kts | 316° |
| 2026-05-05 17:20 | 33.66457 | -78.99500 | 5589 ft | 280 kts | 320° |
| 2026-05-05 17:21 | 33.67979 | -79.00980 | 6616 ft | 284 kts | 320° |
| 2026-05-05 17:21 | 33.69515 | -79.02519 | 7618 ft | 290 kts | 318° |
| 2026-05-05 17:21 | 33.71040 | -79.04129 | 8570 ft | 295 kts | 317° |
| 2026-05-05 17:22 | 33.74095 | -79.07564 | 10352 ft | 309 kts | 314° |
| 2026-05-05 17:22 | 33.75698 | -79.09430 | 10760 ft | 333 kts | 314° |
| 2026-05-05 17:22 | 33.77393 | -79.11425 | 11323 ft | 347 kts | 314° |
| 2026-05-05 17:22 | 33.79127 | -79.13474 | 12152 ft | 352 kts | 313° |
| 2026-05-05 17:23 | 33.80881 | -79.15549 | 13017 ft | 355 kts | 313° |
| 2026-05-05 17:23 | 33.82652 | -79.17641 | 13874 ft | 358 kts | 313° |
| 2026-05-05 17:23 | 33.84434 | -79.19737 | 14732 ft | 360 kts | 313° |
| 2026-05-05 17:23 | 33.86234 | -79.21846 | 15569 ft | 362 kts | 313° |
| 2026-05-05 17:24 | 33.88037 | -79.23961 | 16383 ft | 364 kts | 313° |
| 2026-05-05 17:24 | 33.89854 | -79.26092 | 17129 ft | 366 kts | 313° |
| 2026-05-05 17:24 | 33.91679 | -79.28237 | 17881 ft | 368 kts | 313° |
| 2026-05-05 17:24 | 33.93511 | -79.30400 | 18594 ft | 370 kts | 313° |
| 2026-05-05 17:25 | 33.95350 | -79.32574 | 19290 ft | 372 kts | 313° |
| 2026-05-05 17:25 | 33.96574 | -79.34021 | 19697 ft | 374 kts | 313° |
| 2026-05-05 17:25 | 33.99059 | -79.36955 | 20041 ft | 373 kts | 313° |
| 2026-05-05 17:25 | 34.00888 | -79.39118 | 20124 ft | 373 kts | 313° |
| 2026-05-05 17:26 | 34.02768 | -79.41339 | 20136 ft | 373 kts | 313° |
| 2026-05-05 17:26 | 34.04596 | -79.43501 | 20137 ft | 373 kts | 313° |
| 2026-05-05 17:26 | 34.06446 | -79.45694 | 20135 ft | 373 kts | 313° |
| 2026-05-05 17:26 | 34.08296 | -79.47886 | 20143 ft | 373 kts | 313° |
| 2026-05-05 17:27 | 34.10145 | -79.50077 | 20151 ft | 373 kts | 313° |
| 2026-05-05 17:27 | 34.11992 | -79.52266 | 20136 ft | 372 kts | 313° |
| 2026-05-05 17:27 | 34.13839 | -79.54459 | 20135 ft | 373 kts | 313° |
| 2026-05-05 17:27 | 34.15687 | -79.56655 | 20134 ft | 372 kts | 313° |
| 2026-05-05 17:28 | 34.17528 | -79.58849 | 20151 ft | 372 kts | 313° |
| 2026-05-05 17:28 | 34.19376 | -79.61052 | 20144 ft | 373 kts | 313° |
| 2026-05-05 17:28 | 34.21221 | -79.63247 | 20141 ft | 373 kts | 313° |
| 2026-05-05 17:28 | 34.23068 | -79.65453 | 20147 ft | 372 kts | 311° |
| 2026-05-05 17:29 | 34.24743 | -79.67827 | 20162 ft | 371 kts | 307° |
| 2026-05-05 17:29 | 34.26382 | -79.70236 | 20152 ft | 371 kts | 307° |
| 2026-05-05 17:29 | 34.28022 | -79.72644 | 20144 ft | 371 kts | 307° |
| 2026-05-05 17:29 | 34.29662 | -79.75054 | 20148 ft | 371 kts | 307° |
| 2026-05-05 17:30 | 34.31297 | -79.77459 | 20164 ft | 370 kts | 307° |
| 2026-05-05 17:30 | 34.32933 | -79.79867 | 20156 ft | 371 kts | 307° |
| 2026-05-05 17:30 | 34.34572 | -79.82283 | 20150 ft | 371 kts | 307° |
| 2026-05-05 17:30 | 34.36211 | -79.84697 | 20144 ft | 371 kts | 308° |
| 2026-05-05 17:31 | 34.38012 | -79.86940 | 20138 ft | 373 kts | 317° |
| 2026-05-05 17:31 | 34.39988 | -79.88983 | 20132 ft | 373 kts | 317° |
| 2026-05-05 17:31 | 34.41957 | -79.91028 | 20117 ft | 373 kts | 317° |
| 2026-05-05 17:31 | 34.43915 | -79.93066 | 20021 ft | 367 kts | 317° |
| 2026-05-05 17:32 | 34.45824 | -79.95056 | 19791 ft | 359 kts | 317° |
| 2026-05-05 17:32 | 34.47708 | -79.97023 | 19538 ft | 355 kts | 317° |
| 2026-05-05 17:32 | 34.49553 | -79.98949 | 18793 ft | 348 kts | 316° |
| 2026-05-05 17:32 | 34.51375 | -80.00860 | 17899 ft | 345 kts | 316° |
| 2026-05-05 17:33 | 34.53185 | -80.02755 | 17020 ft | 343 kts | 316° |
| 2026-05-05 17:33 | 34.54992 | -80.04649 | 16331 ft | 344 kts | 316° |
| 2026-05-05 17:33 | 34.56806 | -80.06549 | 16083 ft | 345 kts | 316° |
| 2026-05-05 17:33 | 34.58625 | -80.08449 | 15835 ft | 345 kts | 316° |
| 2026-05-05 17:34 | 34.60444 | -80.10347 | 15597 ft | 345 kts | 316° |
| 2026-05-05 17:34 | 34.62258 | -80.12245 | 15342 ft | 344 kts | 316° |
| 2026-05-05 17:34 | 34.64070 | -80.14144 | 15093 ft | 343 kts | 316° |
| 2026-05-05 17:34 | 34.65914 | -80.15983 | 14840 ft | 344 kts | 321° |
| 2026-05-05 17:35 | 34.67963 | -80.17501 | 14587 ft | 346 kts | 329° |
| 2026-05-05 17:35 | 34.70082 | -80.18878 | 14334 ft | 346 kts | 328° |
| 2026-05-05 17:35 | 34.72201 | -80.20257 | 14081 ft | 345 kts | 328° |
| 2026-05-05 17:35 | 34.74313 | -80.21632 | 13813 ft | 345 kts | 328° |
| 2026-05-05 17:36 | 34.76426 | -80.23009 | 13576 ft | 344 kts | 328° |
| 2026-05-05 17:36 | 34.78535 | -80.24386 | 13317 ft | 343 kts | 328° |
| 2026-05-05 17:36 | 34.80635 | -80.25759 | 13068 ft | 343 kts | 328° |
| 2026-05-05 17:36 | 34.82736 | -80.27136 | 12810 ft | 342 kts | 328° |
| 2026-05-05 17:37 | 34.84834 | -80.28511 | 12558 ft | 342 kts | 328° |
| 2026-05-05 17:37 | 34.86931 | -80.29883 | 12301 ft | 341 kts | 328° |
| 2026-05-05 17:37 | 34.89023 | -80.31251 | 12052 ft | 341 kts | 328° |
| 2026-05-05 17:37 | 34.91107 | -80.32615 | 11795 ft | 340 kts | 328° |
| 2026-05-05 17:38 | 34.93188 | -80.33979 | 11550 ft | 339 kts | 328° |
| 2026-05-05 17:38 | 34.95264 | -80.35342 | 11297 ft | 338 kts | 328° |
| 2026-05-05 17:38 | 34.97331 | -80.36698 | 11045 ft | 338 kts | 328° |
| 2026-05-05 17:38 | 34.99399 | -80.38054 | 10801 ft | 337 kts | 328° |
| 2026-05-05 17:39 | 35.01457 | -80.39406 | 10561 ft | 336 kts | 328° |
| 2026-05-05 17:39 | 35.03513 | -80.40757 | 10314 ft | 335 kts | 328° |
| 2026-05-05 17:39 | 35.05634 | -80.41935 | 10054 ft | 336 kts | 338° |
| 2026-05-05 17:39 | 35.07876 | -80.42658 | 9871 ft | 328 kts | 344° |
| 2026-05-05 17:40 | 35.10050 | -80.43287 | 9755 ft | 316 kts | 344° |
| 2026-05-05 17:40 | 35.12162 | -80.43908 | 9607 ft | 309 kts | 343° |
| 2026-05-05 17:40 | 35.14251 | -80.44532 | 9500 ft | 309 kts | 343° |
| 2026-05-05 17:40 | 35.16333 | -80.45156 | 9388 ft | 308 kts | 343° |
| 2026-05-05 17:41 | 35.18414 | -80.45779 | 9098 ft | 308 kts | 343° |
| 2026-05-05 17:41 | 35.20477 | -80.46398 | 8540 ft | 305 kts | 343° |
| 2026-05-05 17:41 | 35.22522 | -80.47006 | 7984 ft | 300 kts | 343° |
| 2026-05-05 17:41 | 35.24552 | -80.47605 | 7487 ft | 300 kts | 344° |
| 2026-05-05 17:42 | 35.26560 | -80.48197 | 7199 ft | 294 kts | 343° |
| 2026-05-05 17:42 | 35.28515 | -80.48776 | 6863 ft | 292 kts | 343° |
| 2026-05-05 17:42 | 35.30507 | -80.49370 | 6477 ft | 291 kts | 343° |
| 2026-05-05 17:42 | 35.32458 | -80.49951 | 6175 ft | 287 kts | 343° |
| 2026-05-05 17:43 | 35.34363 | -80.50520 | 5770 ft | 284 kts | 343° |
| 2026-05-05 17:43 | 35.36282 | -80.51093 | 5392 ft | 284 kts | 343° |
| 2026-05-05 17:43 | 35.38187 | -80.51660 | 5002 ft | 281 kts | 343° |
| 2026-05-05 17:43 | 35.40094 | -80.52228 | 4684 ft | 280 kts | 343° |
| 2026-05-05 17:44 | 35.42004 | -80.52797 | 4256 ft | 278 kts | 343° |
| 2026-05-05 17:44 | 35.43838 | -80.53433 | 3894 ft | 275 kts | 333° |
| 2026-05-05 17:44 | 35.45308 | -80.54836 | 3629 ft | 264 kts | 304° |
| 2026-05-05 17:44 | 35.46084 | -80.56828 | 3299 ft | 256 kts | 284° |
| 2026-05-05 17:45 | 35.46568 | -80.58892 | 3174 ft | 248 kts | 282° |
| 2026-05-05 17:45 | 35.47003 | -80.60922 | 3049 ft | 242 kts | 282° |
| 2026-05-05 17:45 | 35.47387 | -80.62886 | 3036 ft | 229 kts | 274° |
| 2026-05-05 17:45 | 35.47441 | -80.64790 | 2969 ft | 222 kts | 264° |
| 2026-05-05 17:46 | 35.47212 | -80.66604 | 2789 ft | 208 kts | 250° |
| 2026-05-05 17:46 | 35.46586 | -80.68120 | 2558 ft | 193 kts | 226° |
| 2026-05-05 17:46 | 35.45621 | -80.69138 | 2385 ft | 176 kts | 217° |
| 2026-05-05 17:46 | 35.44531 | -80.69670 | 2161 ft | 166 kts | 189° |
| 2026-05-05 17:47 | 35.43405 | -80.69883 | 1841 ft | 161 kts | 191° |
| 2026-05-05 17:47 | 35.42306 | -80.70131 | 1448 ft | 157 kts | 192° |
| 2026-05-05 17:47 | 35.41256 | -80.70362 | 1106 ft | 149 kts | 191° |
| 2026-05-05 17:47 | 35.40283 | -80.70579 | 874 ft | 138 kts | 192° |
| 2026-05-05 17:48 | 35.39363 | -80.70785 | 697 ft | 128 kts | 190° |
| 2026-05-05 17:48 | 35.38594 | -80.70955 | 673 ft | 92 kts | 190° |
| 2026-05-05 17:48 | 35.38191 | -80.71045 | 663 ft | 25 kts | 193° |
| 2026-05-05 17:48 | 35.38162 | -80.71177 | 664 ft | 13 kts | 241° |
| 2026-05-05 17:49 | 35.38092 | -80.71251 | 661 ft | 16 kts | 272° |
| 2026-05-05 17:49 | 35.38069 | -80.71298 | 660 ft | 0 kts | 228° |
| 2026-05-05 17:49 | 35.38070 | -80.71298 | 660 ft | 0 kts | 228° |